Time;durP1;ratioP1;P1;durP2;ratioP2;P2;SDS_P1;SDS_P2;PMS_P1;PMS_P2;Temp;Humidity;BMP_temperature;BMP_pressure;BME280_temperature;BME280_humidity;BME280_pressure;Samples;Min_cycle;Max_cycle;Signal;HPM_P1;HPM_P2
2020/12/11 00:00:24;;;;;;;47.85;31.10;;;;;;;1.68;82.38;95270.34;5002119;28;20065;-54
2020/12/11 00:02:52;;;;;;;48.42;30.92;;;;;;;1.67;82.47;95273.97;5029685;28;20057;-54
2020/12/11 00:05:20;;;;;;;52.42;34.50;;;;;;;1.67;82.56;95277.38;4995966;28;20060;-54
2020/12/11 00:07:48;;;;;;;56.10;34.72;;;;;;;1.69;82.21;95280.56;5015871;28;20053;-54
2020/12/11 00:10:15;;;;;;;53.92;34.85;;;;;;;1.63;82.30;95275.44;5005247;28;20057;-54
2020/12/11 00:12:42;;;;;;;60.47;36.00;;;;;;;1.58;82.50;95277.84;5050900;28;20058;-54
2020/12/11 00:15:09;;;;;;;49.03;31.90;;;;;;;1.56;82.84;95282.47;5003001;28;20042;-55
2020/12/11 00:17:37;;;;;;;58.33;33.53;;;;;;;1.52;82.60;95282.91;4999843;28;20844;-54
2020/12/11 00:20:05;;;;;;;59.72;34.55;;;;;;;1.50;83.00;95281.53;5016941;28;20061;-55
2020/12/11 00:22:33;;;;;;;59.13;38.38;;;;;;;1.46;83.08;95288.19;4998195;28;20068;-54
2020/12/11 00:25:00;;;;;;;57.15;34.22;;;;;;;1.44;83.54;95283.19;4999738;28;20050;-55
2020/12/11 00:27:27;;;;;;;51.72;31.55;;;;;;;1.45;83.37;95284.78;5000949;28;20746;-53
2020/12/11 00:29:54;;;;;;;49.55;31.45;;;;;;;1.48;83.33;95280.94;5002699;28;20058;-58
2020/12/11 00:32:22;;;;;;;51.28;33.28;;;;;;;1.49;82.80;95278.16;5003825;28;20049;-54
2020/12/11 00:34:49;;;;;;;48.88;30.88;;;;;;;1.44;83.15;95279.78;5005326;28;20053;-53
2020/12/11 00:37:17;;;;;;;47.83;29.83;;;;;;;1.44;83.20;95283.19;4995270;28;20564;-60
2020/12/11 00:39:44;;;;;;;46.70;30.05;;;;;;;1.46;83.29;95280.38;5001227;28;20060;-53
2020/12/11 00:42:11;;;;;;;55.30;32.60;;;;;;;1.46;83.30;95283.75;4997277;28;20438;-52
2020/12/11 00:44:38;;;;;;;49.83;32.15;;;;;;;1.52;82.98;95292.50;4996836;28;20056;-52
2020/12/11 00:47:05;;;;;;;52.00;32.88;;;;;;;1.49;83.35;95293.75;4975974;28;20076;-54
2020/12/11 00:49:33;;;;;;;52.42;32.00;;;;;;;1.52;83.26;95293.31;4996618;28;20107;-53
2020/12/11 00:52:00;;;;;;;60.03;36.80;;;;;;;1.44;83.49;95290.97;5019164;28;20183;-54
2020/12/11 00:54:34;;;;;;;47.80;30.73;;;;;;;1.42;83.55;95292.97;4997209;28;20548;-55
2020/12/11 00:57:02;;;;;;;57.45;32.50;;;;;;;1.47;82.93;95295.75;5013184;28;20065;-53
2020/12/11 00:59:29;;;;;;;48.30;32.15;;;;;;;1.52;82.64;95298.53;4980231;28;20596;-54
2020/12/11 01:01:56;;;;;;;50.72;30.83;;;;;;;1.54;82.75;95291.28;5030224;28;20050;-53
2020/12/11 01:04:24;;;;;;;50.60;30.92;;;;;;;1.58;82.65;95283.06;5030921;28;20069;-56
2020/12/11 01:06:50;;;;;;;49.03;31.98;;;;;;;1.59;82.60;95287.25;5013531;28;20053;-53
2020/12/11 01:09:18;;;;;;;51.95;31.00;;;;;;;1.57;82.87;95284.88;4999280;28;20957;-53
2020/12/11 01:11:45;;;;;;;52.88;34.10;;;;;;;1.47;82.87;95285.34;4997416;28;20049;-54
2020/12/11 01:14:12;;;;;;;44.42;29.95;;;;;;;1.41;83.56;95278.44;5032853;28;20046;-54
2020/12/11 01:16:39;;;;;;;56.63;32.03;;;;;;;1.34;83.42;95278.47;5011277;28;20054;-54
2020/12/11 01:19:07;;;;;;;48.97;31.05;;;;;;;1.33;83.63;95284.69;4997507;28;20049;-55
2020/12/11 01:21:34;;;;;;;47.03;27.98;;;;;;;1.35;83.71;95290.44;5030049;28;20065;-55
2020/12/11 01:24:01;;;;;;;45.60;28.55;;;;;;;1.37;83.26;95285.81;5010984;28;20198;-54
2020/12/11 01:26:28;;;;;;;38.55;26.58;;;;;;;1.41;83.39;95285.41;5029439;28;20065;-52
2020/12/11 01:28:55;;;;;;;44.00;28.95;;;;;;;1.27;83.41;95262.13;5042740;28;20065;-53
2020/12/11 01:31:22;;;;;;;43.30;27.50;;;;;;;1.33;83.17;95278.69;4992791;28;20050;-54
2020/12/11 01:33:50;;;;;;;51.20;30.55;;;;;;;1.31;83.22;95276.31;5016709;28;20053;-53
2020/12/11 01:36:25;;;;;;;44.88;28.42;;;;;;;1.27;82.73;95276.94;4998545;28;20061;-54
2020/12/11 01:38:52;;;;;;;39.30;25.35;;;;;;;1.23;82.66;95279.16;5002347;28;20806;-54
2020/12/11 01:41:21;;;;;;;43.65;28.88;;;;;;;1.16;82.92;95274.03;4990199;28;20053;-54
2020/12/11 01:43:48;;;;;;;45.55;28.17;;;;;;;1.09;82.72;95270.66;4997399;28;20076;-53
2020/12/11 01:46:20;;;;;;;40.80;25.83;;;;;;;1.07;82.51;95283.06;4992435;28;20055;-54
2020/12/11 01:48:47;;;;;;;42.70;27.30;;;;;;;1.00;82.58;95284.94;4997968;28;20093;-52
2020/12/11 01:51:15;;;;;;;36.63;23.48;;;;;;;0.94;82.70;95285.75;5001327;28;20536;-53
2020/12/11 01:53:43;;;;;;;37.45;24.60;;;;;;;0.85;82.37;95277.44;4993428;28;20437;-53
2020/12/11 01:56:18;;;;;;;42.13;25.90;;;;;;;0.77;82.05;95271.47;4996032;28;20053;-54
2020/12/11 01:58:47;;;;;;;39.03;23.38;;;;;;;0.64;82.25;95274.16;4999191;28;20057;-54
2020/12/11 02:01:16;;;;;;;40.97;26.05;;;;;;;0.56;82.39;95271.81;4994154;28;20060;-58
2020/12/11 02:03:44;;;;;;;31.42;20.83;;;;;;;0.51;82.82;95267.25;5029502;28;20865;-53
2020/12/11 02:06:11;;;;;;;35.03;19.95;;;;;;;0.50;83.13;95276.03;4995157;28;23013;-53
2020/12/11 02:08:39;;;;;;;33.03;21.77;;;;;;;0.45;83.56;95270.66;5002636;28;20516;-53
2020/12/11 02:11:24;;;;;;;31.77;20.35;;;;;;;0.38;83.44;95262.91;5018376;28;20528;-54
2020/12/11 02:13:52;;;;;;;35.05;22.15;;;;;;;0.33;83.52;95267.94;4993510;28;20053;-52
2020/12/11 02:16:21;;;;;;;30.40;20.20;;;;;;;0.29;84.24;95269.34;4997179;28;20053;-53
2020/12/11 02:18:50;;;;;;;33.00;18.88;;;;;;;0.25;84.84;95263.78;4997709;28;20694;-54
2020/12/11 02:21:17;;;;;;;35.08;20.95;;;;;;;0.22;85.45;95264.19;4980300;28;20061;-54
2020/12/11 02:23:45;;;;;;;33.47;19.05;;;;;;;0.31;84.99;95264.75;4995917;28;20540;-54
2020/12/11 02:26:13;;;;;;;29.45;18.73;;;;;;;0.40;85.02;95262.72;4998321;28;21760;-55
2020/12/11 02:28:41;;;;;;;37.75;20.20;;;;;;;0.49;85.14;95258.88;5030168;28;20624;-54
2020/12/11 02:31:07;;;;;;;29.75;19.85;;;;;;;0.56;85.17;95264.81;5002132;28;20058;-54
2020/12/11 02:33:35;;;;;;;33.45;19.98;;;;;;;0.58;85.10;95262.81;5032169;28;20064;-54
2020/12/11 02:36:02;;;;;;;31.92;18.95;;;;;;;0.64;84.84;95270.78;5028824;28;20057;-54
2020/12/11 02:38:29;;;;;;;29.08;18.77;;;;;;;0.70;84.80;95260.34;4990132;28;20053;-54
2020/12/11 02:40:59;;;;;;;31.70;19.77;;;;;;;0.78;84.13;95267.09;5009020;28;20505;-53
2020/12/11 02:43:27;;;;;;;33.30;20.33;;;;;;;0.84;84.29;95265.47;4991392;28;20064;-53
2020/12/11 02:45:55;;;;;;;30.25;17.98;;;;;;;0.88;84.23;95264.03;5002437;28;20057;-54
2020/12/11 02:48:22;;;;;;;37.60;22.05;;;;;;;0.88;83.55;95262.22;4995425;28;20053;-54
2020/12/11 02:50:50;;;;;;;33.95;21.60;;;;;;;0.86;83.81;95260.88;5004846;28;20053;-54
2020/12/11 02:53:17;;;;;;;33.28;19.50;;;;;;;0.86;83.79;95269.44;4996119;28;20058;-53
2020/12/11 02:55:48;;;;;;;28.85;18.67;;;;;;;0.83;83.57;95263.88;4984849;28;20060;-55
2020/12/11 02:58:15;;;;;;;31.75;19.88;;;;;;;0.85;83.92;95267.84;4995383;28;20053;-56
2020/12/11 03:00:42;;;;;;;38.60;21.38;;;;;;;0.74;83.63;95245.16;4998408;28;20124;-56
2020/12/11 03:03:09;;;;;;;30.92;18.65;;;;;;;0.85;83.51;95262.66;5007703;28;20053;-56
2020/12/11 03:05:37;;;;;;;30.73;18.50;;;;;;;0.82;83.21;95260.47;5029526;28;20529;-55
2020/12/11 03:08:04;;;;;;;38.35;22.23;;;;;;;0.81;83.13;95256.28;4998815;28;20049;-52
2020/12/11 03:10:31;;;;;;;36.08;20.88;;;;;;;0.74;83.24;95250.34;5002326;28;20053;-53
2020/12/11 03:12:58;;;;;;;36.42;22.73;;;;;;;0.71;83.02;95256.75;4976704;28;20057;-55
2020/12/11 03:15:25;;;;;;;46.13;24.48;;;;;;;0.67;83.00;95252.19;4997392;28;20087;-54
2020/12/11 03:17:53;;;;;;;36.40;21.60;;;;;;;0.53;83.04;95256.66;4995436;28;20718;-53
2020/12/11 03:20:24;;;;;;;30.17;19.65;;;;;;;0.41;83.30;95256.53;5032638;28;21130;-56
2020/12/11 03:22:56;;;;;;;29.08;19.13;;;;;;;0.44;83.39;95256.09;5045382;28;20387;-53
2020/12/11 03:25:26;;;;;;;;;;;;;;;0.48;83.02;95251.31;5006249;28;20053;-54
2020/12/11 03:27:54;;;;;;;31.48;19.98;;;;;;;0.53;83.20;95261.84;5001449;28;19929;-54
2020/12/11 03:30:24;;;;;;;30.92;19.77;;;;;;;0.47;83.12;95262.69;5008480;28;20054;-54
2020/12/11 03:32:51;;;;;;;32.15;18.42;;;;;;;0.47;83.69;95273.06;5001395;28;20061;-54
2020/12/11 03:35:18;;;;;;;35.10;20.02;;;;;;;0.42;83.91;95271.09;5003741;28;21165;-55
2020/12/11 03:37:45;;;;;;;34.75;19.05;;;;;;;0.38;84.00;95265.50;5001838;28;20049;-55
2020/12/11 03:40:12;;;;;;;29.83;17.45;;;;;;;0.46;83.94;95272.25;4996004;28;20048;-54
2020/12/11 03:42:39;;;;;;;29.42;19.15;;;;;;;0.50;83.92;95267.44;5034270;28;21963;-53
2020/12/11 03:45:07;;;;;;;33.80;19.63;;;;;;;0.51;83.56;95272.44;5003333;28;20053;-54
2020/12/11 03:47:34;;;;;;;26.48;17.73;;;;;;;0.54;84.14;95266.84;5000710;28;20062;-54
2020/12/11 03:50:01;;;;;;;25.80;17.77;;;;;;;0.57;83.79;95274.19;4998716;28;20104;-54
2020/12/11 03:52:29;;;;;;;26.75;17.33;;;;;;;0.61;83.80;95277.19;4985738;28;20058;-55
2020/12/11 03:54:57;;;;;;;32.85;19.45;;;;;;;0.64;83.52;95268.19;4995205;28;20061;-54
2020/12/11 03:57:24;;;;;;;29.48;17.83;;;;;;;0.66;83.64;95264.38;5013226;28;20057;-53
2020/12/11 03:59:51;;;;;;;29.75;17.98;;;;;;;0.68;83.72;95266.75;5015923;28;20426;-54
2020/12/11 04:02:18;;;;;;;28.25;18.33;;;;;;;0.69;83.77;95269.16;5030582;28;20579;-52
2020/12/11 04:04:45;;;;;;;27.42;17.02;;;;;;;0.72;83.87;95281.72;4999631;28;20636;-55
2020/12/11 04:07:13;;;;;;;25.60;17.00;;;;;;;0.70;83.82;95281.13;5012595;28;20083;-53
2020/12/11 04:09:40;;;;;;;23.02;14.25;;;;;;;0.72;83.79;95284.31;5000066;28;20701;-54
2020/12/11 04:12:08;;;;;;;21.08;13.27;;;;;;;0.73;83.41;95274.72;5007637;28;20084;-53
2020/12/11 04:14:35;;;;;;;28.60;15.05;;;;;;;0.68;83.72;95277.13;5005675;28;20057;-54
2020/12/11 04:17:02;;;;;;;22.45;13.40;;;;;;;0.65;84.12;95274.97;5028210;28;20068;-55
2020/12/11 04:19:29;;;;;;;20.58;14.07;;;;;;;0.67;83.64;95275.56;4998656;28;20434;-55
2020/12/11 04:21:57;;;;;;;22.45;14.85;;;;;;;0.68;83.91;95282.31;4999735;28;20061;-54
2020/12/11 04:24:24;;;;;;;22.80;14.88;;;;;;;0.60;83.88;95271.19;5001652;28;20777;-55
2020/12/11 04:26:51;;;;;;;23.27;15.57;;;;;;;0.60;84.30;95271.19;4998724;28;20057;-54
2020/12/11 04:29:19;;;;;;;18.65;12.95;;;;;;;0.68;83.92;95274.53;5014700;28;20070;-55
2020/12/11 04:31:57;;;;;;;20.65;12.70;;;;;;;0.74;84.04;95282.28;5001110;28;20049;-55
2020/12/11 04:34:26;;;;;;;18.75;12.70;;;;;;;0.79;83.48;95281.69;4996365;28;20057;-56
2020/12/11 04:36:57;;;;;;;18.63;12.13;;;;;;;0.85;83.24;95280.81;4994386;28;20064;-55
2020/12/11 04:39:24;;;;;;;22.80;15.05;;;;;;;0.78;83.57;95287.88;5002406;28;20054;-54
2020/12/11 04:41:53;;;;;;;22.60;14.35;;;;;;;0.70;83.19;95285.50;4996379;28;20054;-56
2020/12/11 04:44:21;;;;;;;23.05;15.45;;;;;;;0.68;84.26;95287.50;5002301;28;20058;-54
2020/12/11 04:46:49;;;;;;;23.00;15.10;;;;;;;0.76;84.25;95295.84;4998267;28;20041;-55
2020/12/11 04:49:19;;;;;;;23.80;15.82;;;;;;;0.82;84.18;95299.41;4964598;28;20088;-57
2020/12/11 04:51:53;;;;;;;23.10;13.68;;;;;;;0.86;83.15;95310.97;5006411;28;20426;-55
2020/12/11 04:54:21;;;;;;;19.73;12.80;;;;;;;0.84;83.15;95310.38;4997065;28;20063;-60
2020/12/11 04:56:50;;;;;;;15.95;11.18;;;;;;;0.79;82.17;95310.22;4996763;28;20069;-55
2020/12/11 04:59:19;;;;;;;13.55;9.77;;;;;;;0.73;82.46;95298.88;5012462;28;20057;-54
2020/12/11 05:01:46;;;;;;;15.48;10.60;;;;;;;0.69;82.76;95315.06;5027301;28;20046;-55
2020/12/11 05:04:13;;;;;;;14.25;9.98;;;;;;;0.66;82.55;95312.91;5001616;28;20058;-58
2020/12/11 05:06:40;;;;;;;12.80;9.10;;;;;;;0.71;82.87;95308.69;4998506;28;20053;-55
2020/12/11 05:09:08;;;;;;;14.38;10.75;;;;;;;0.69;82.53;95304.66;4980471;28;20057;-55
2020/12/11 05:11:36;;;;;;;15.70;10.38;;;;;;;0.68;83.01;95306.50;5034544;28;20403;-56
2020/12/11 05:14:03;;;;;;;15.90;11.20;;;;;;;0.74;82.40;95297.06;5000280;28;20057;-56
2020/12/11 05:16:30;;;;;;;16.42;11.05;;;;;;;0.68;82.43;95297.88;4997410;28;20052;-56
2020/12/11 05:19:05;;;;;;;13.88;11.32;;;;;;;0.67;82.95;95301.50;5030339;28;20069;-58
2020/12/11 05:21:32;;;;;;;12.90;9.20;;;;;;;0.61;83.25;95298.72;4999631;28;20059;-54
2020/12/11 05:24:05;;;;;;;13.95;10.52;;;;;;;0.71;82.86;95300.06;5014626;28;20057;-55
2020/12/11 05:26:36;;;;;;;14.77;10.52;;;;;;;0.76;82.44;95292.47;4997523;28;20292;-55
2020/12/11 05:29:04;;;;;;;15.90;9.48;;;;;;;0.77;82.31;95287.06;4993500;28;20053;-55
2020/12/11 05:31:31;;;;;;;18.02;12.85;;;;;;;0.80;82.14;95288.44;5001964;28;20061;-56
2020/12/11 05:34:06;;;;;;;18.23;12.52;;;;;;;0.74;82.48;95292.66;5001415;28;20052;-56
2020/12/11 05:36:53;;;;;;;19.90;13.88;;;;;;;0.78;82.65;95308.63;4995146;28;20215;-55
2020/12/11 05:39:30;;;;;;;16.98;11.85;;;;;;;0.72;82.77;95301.66;4993998;28;20057;-54
2020/12/11 05:41:59;;;;;;;18.25;13.32;;;;;;;0.72;82.45;95301.66;5032341;28;20056;-56
2020/12/11 05:44:26;;;;;;;18.20;13.27;;;;;;;0.72;82.38;95312.88;5005104;28;20057;-55
2020/12/11 05:46:54;;;;;;;20.00;13.60;;;;;;;0.69;82.52;95309.88;5005564;28;20053;-66
2020/12/11 05:49:23;;;;;;;25.30;16.52;;;;;;;0.64;82.10;95315.69;5053716;28;20813;-54
2020/12/11 05:51:56;;;;;;;20.85;15.32;;;;;;;0.60;82.20;95312.72;5012080;28;20064;-55
2020/12/11 05:54:24;;;;;;;21.63;15.70;;;;;;;0.57;82.88;95313.13;5038620;28;20068;-55
2020/12/11 05:56:52;;;;;;;25.10;18.27;;;;;;;0.52;82.75;95307.78;4999100;28;20707;-55
2020/12/11 05:59:23;;;;;;;29.10;18.83;;;;;;;0.48;83.36;95309.19;5022142;28;20053;-55
2020/12/11 06:01:55;;;;;;;27.50;18.30;;;;;;;0.44;82.93;95310.59;5024181;28;20462;-55
2020/12/11 06:04:25;;;;;;;27.10;20.27;;;;;;;0.44;83.00;95308.00;5027922;28;20520;-57
2020/12/11 06:06:57;;;;;;;30.00;20.10;;;;;;;0.40;82.87;95314.59;5019587;28;20415;-55
2020/12/11 06:09:35;;;;;;;27.05;18.88;;;;;;;0.32;82.94;95304.44;5001901;28;20060;-57
2020/12/11 06:12:04;;;;;;;30.83;21.02;;;;;;;0.34;82.89;95310.22;5046905;28;20044;-55
2020/12/11 06:15:05;;;;;;;31.83;22.23;;;;;;;0.38;83.10;95322.59;5004506;28;20068;-53
2020/12/11 06:17:38;;;;;;;32.60;21.75;;;;;;;0.43;83.23;95320.19;5007946;28;20061;-53
2020/12/11 06:20:09;;;;;;;27.42;20.02;;;;;;;0.43;83.24;95322.00;5005141;28;20053;-53
2020/12/11 06:22:37;;;;;;;32.22;20.58;;;;;;;0.53;83.09;95329.31;5035285;28;20049;-53
2020/12/11 06:25:23;;;;;;;26.52;20.90;;;;;;;0.59;83.01;95325.91;5034204;28;20057;-55
2020/12/11 06:27:51;;;;;;;31.17;23.90;;;;;;;0.63;82.82;95319.28;5031694;28;20060;-52
2020/12/11 06:30:26;;;;;;;37.53;25.00;;;;;;;0.65;83.03;95319.09;5023951;28;20058;-53
2020/12/11 06:32:54;;;;;;;35.30;25.50;;;;;;;0.62;83.05;95320.28;4982111;28;20718;-55
2020/12/11 06:35:22;;;;;;;42.15;24.88;;;;;;;0.58;83.17;95312.13;4990768;28;20045;-55
2020/12/11 06:37:50;;;;;;;44.58;28.58;;;;;;;0.61;83.35;95316.13;5026406;28;20053;-52
2020/12/11 06:40:47;;;;;;;48.67;27.67;;;;;;;0.64;83.19;95310.50;4987935;28;20053;-54
2020/12/11 06:43:35;;;;;;;39.40;28.30;;;;;;;0.69;83.25;95310.69;5015265;28;20048;-55
2020/12/11 06:46:17;;;;;;;51.97;30.55;;;;;;;0.72;82.91;95312.06;4986308;28;20421;-54
2020/12/11 06:49:06;;;;;;;38.38;26.55;;;;;;;0.70;82.84;95311.47;4986879;28;20085;-55
2020/12/11 06:51:54;;;;;;;36.35;24.08;;;;;;;0.70;83.08;95314.06;5005172;28;21012;-57
2020/12/11 06:54:20;;;;;;;31.52;24.08;;;;;;;0.72;82.59;95322.44;4983107;28;20065;-55
2020/12/11 06:56:49;;;;;;;31.42;20.48;;;;;;;0.70;82.59;95316.66;5038291;28;20062;-55
2020/12/11 06:59:28;;;;;;;24.45;16.02;;;;;;;0.71;82.29;95318.25;5008636;28;20064;-55
2020/12/11 07:02:05;;;;;;;23.27;17.30;;;;;;;0.72;81.69;95319.84;5034403;28;20041;-55
2020/12/11 07:04:40;;;;;;;21.85;15.32;;;;;;;0.71;80.88;95310.47;5015840;28;20053;-55
2020/12/11 07:07:08;;;;;;;20.60;13.80;;;;;;;0.72;81.37;95312.06;5038275;28;20053;-57
2020/12/11 07:09:38;;;;;;;20.55;14.35;;;;;;;0.72;81.23;95305.06;5003814;28;20052;-55
2020/12/11 07:12:06;;;;;;;21.40;13.98;;;;;;;0.76;81.70;95315.84;5008699;28;20497;-55
2020/12/11 07:14:34;;;;;;;21.27;14.65;;;;;;;0.78;81.12;95306.03;5015854;28;20049;-55
2020/12/11 07:17:01;;;;;;;25.92;16.35;;;;;;;0.80;80.74;95300.63;5008408;28;20054;-53
2020/12/11 07:19:38;;;;;;;23.45;17.50;;;;;;;0.83;80.72;95305.41;5051563;28;20417;-54
2020/12/11 07:22:06;;;;;;;21.48;15.50;;;;;;;0.82;80.36;95309.78;5051437;28;20045;-54
2020/12/11 07:24:33;;;;;;;21.55;16.23;;;;;;;0.81;80.39;95302.22;5021479;28;20041;-53
2020/12/11 07:27:08;;;;;;;22.35;17.15;;;;;;;0.87;81.00;95311.75;5004885;28;20345;-53
2020/12/11 07:29:36;;;;;;;27.67;17.88;;;;;;;0.88;80.81;95308.16;5033098;28;20053;-53
2020/12/11 07:32:03;;;;;;;25.75;16.63;;;;;;;0.94;81.03;95309.94;5052249;28;20049;-54
2020/12/11 07:34:33;;;;;;;28.60;16.65;;;;;;;0.96;80.95;95302.75;5022253;28;20490;-54
2020/12/11 07:37:01;;;;;;;20.20;13.70;;;;;;;1.14;80.13;95307.22;5019063;28;20053;-54
2020/12/11 07:39:29;;;;;;;17.63;13.23;;;;;;;1.29;79.30;95304.28;5040229;28;20413;-54
2020/12/11 07:42:01;;;;;;;20.65;13.00;;;;;;;1.32;79.12;95301.28;5016886;28;20057;-54
2020/12/11 07:44:30;;;;;;;20.52;13.70;;;;;;;1.41;78.19;95298.41;5018555;28;20056;-55
2020/12/11 07:47:01;;;;;;;21.92;13.50;;;;;;;1.41;77.79;95288.81;5046558;28;20064;-53
2020/12/11 07:49:40;;;;;;;19.77;13.93;;;;;;;1.43;78.20;95296.41;5033790;28;20046;-53
2020/12/11 07:52:09;;;;;;;17.65;13.07;;;;;;;1.49;77.50;95311.94;5019423;28;20227;-54
2020/12/11 07:54:43;;;;;;;19.42;13.40;;;;;;;1.51;76.90;95302.13;5025249;28;20052;-55
2020/12/11 07:57:22;;;;;;;21.60;14.45;;;;;;;1.53;76.99;95307.09;5014652;28;20061;-56
2020/12/11 08:00:01;;;;;;;19.80;15.18;;;;;;;1.52;77.11;95302.91;5032061;28;20080;-54
2020/12/11 08:02:33;;;;;;;19.23;13.18;;;;;;;1.51;77.43;95302.13;5024619;28;20041;-53
2020/12/11 08:05:04;;;;;;;19.15;15.52;;;;;;;1.52;77.72;95303.72;5016173;28;20413;-53
2020/12/11 08:07:34;;;;;;;20.30;13.10;;;;;;;1.52;77.52;95306.31;5015989;28;20050;-55
2020/12/11 08:10:11;;;;;;;21.20;14.05;;;;;;;1.49;76.79;95317.13;5029095;28;20049;-54
2020/12/11 08:12:43;;;;;;;19.20;12.95;;;;;;;1.49;77.01;95314.53;5024996;28;20065;-53
2020/12/11 08:15:11;;;;;;;18.40;11.63;;;;;;;1.52;76.49;95319.31;5042903;28;21873;-54
2020/12/11 08:17:42;;;;;;;18.33;12.82;;;;;;;1.56;76.53;95308.47;5052574;28;20060;-54
2020/12/11 08:20:10;;;;;;;25.50;13.80;;;;;;;1.61;76.47;95308.63;5028242;28;20053;-54
2020/12/11 08:22:40;;;;;;;17.35;13.25;;;;;;;1.62;76.28;95294.63;5029943;28;20195;-55
2020/12/11 08:25:26;;;;;;;21.75;14.50;;;;;;;1.60;76.86;95288.84;5027285;28;20054;-57
2020/12/11 08:27:53;;;;;;;;;;;;;;;1.64;76.93;95297.81;5027250;28;20063;-53
2020/12/11 08:30:22;;;;;;;20.95;13.50;;;;;;;1.67;77.11;95295.56;5048719;28;20285;-54
2020/12/11 08:32:50;;;;;;;15.63;13.43;;;;;;;1.65;76.68;95296.81;5016712;28;20041;-53
2020/12/11 08:35:22;;;;;;;16.85;12.57;;;;;;;1.71;76.65;95298.53;5012251;28;20046;-53
2020/12/11 08:38:10;;;;;;;17.10;12.45;;;;;;;1.77;76.16;95300.28;5009131;28;20064;-54
2020/12/11 08:40:49;;;;;;;23.90;15.70;;;;;;;1.79;76.85;95302.66;5049965;28;20053;-54
2020/12/11 08:48:45;;;;;;;19.83;14.52;;;;;;;1.93;76.32;95311.13;5036388;28;20588;-53
2020/12/11 08:51:14;;;;;;;22.52;14.35;;;;;;;1.98;76.20;95306.88;5014905;28;20076;-54
2020/12/11 08:53:50;;;;;;;18.38;13.77;;;;;;;2.06;76.13;95297.97;5028337;28;20647;-52
2020/12/11 08:56:44;;;;;;;17.73;14.02;;;;;;;2.15;75.60;95291.47;5042573;28;20065;-54
2020/12/11 08:59:12;;;;;;;20.35;14.27;;;;;;;2.22;75.03;95290.63;4987422;28;20056;-54
2020/12/11 09:01:41;;;;;;;24.50;16.95;;;;;;;2.24;75.14;95296.41;5050918;28;20545;-54
2020/12/11 09:04:09;;;;;;;23.10;17.67;;;;;;;2.29;74.20;95293.91;5052167;28;20050;-55
2020/12/11 09:06:36;;;;;;;21.63;16.42;;;;;;;2.29;74.49;95292.13;5017926;28;20053;-54
2020/12/11 09:09:04;;;;;;;26.25;17.15;;;;;;;2.24;73.85;95267.78;5018730;28;20054;-54
2020/12/11 09:11:33;;;;;;;30.25;21.00;;;;;;;2.33;74.21;95292.47;5021188;28;20049;-54
2020/12/11 09:14:01;;;;;;;22.83;15.70;;;;;;;2.35;73.23;95287.03;5012536;28;20063;-54
2020/12/11 09:16:28;;;;;;;27.40;17.77;;;;;;;2.32;73.38;95290.88;5048733;28;20053;-54
2020/12/11 09:18:56;;;;;;;18.33;13.43;;;;;;;2.32;72.99;95295.31;5022620;28;20049;-54
2020/12/11 09:21:27;;;;;;;23.00;15.75;;;;;;;2.25;73.52;95296.16;5024098;28;20056;-57
2020/12/11 09:23:55;;;;;;;21.48;15.10;;;;;;;2.21;74.18;95289.03;5051032;28;20064;-54
2020/12/11 09:26:26;;;;;;;42.00;16.85;;;;;;;2.23;73.39;95281.78;5019628;28;20057;-54
2020/12/11 09:29:10;;;;;;;16.92;12.15;;;;;;;2.17;73.73;95288.66;5035888;28;20064;-63
2020/12/11 09:31:43;;;;;;;18.58;12.88;;;;;;;2.22;74.23;95282.81;5025051;28;20054;-55
2020/12/11 09:34:13;;;;;;;21.35;14.65;;;;;;;2.21;74.02;95273.41;5056950;28;20049;-55
2020/12/11 09:36:44;;;;;;;16.38;12.60;;;;;;;2.26;73.12;95268.34;5012676;28;20057;-54
2020/12/11 09:39:11;;;;;;;16.60;12.15;;;;;;;2.23;72.28;95269.56;5015727;28;20057;-54
2020/12/11 09:41:51;;;;;;;16.08;13.07;;;;;;;2.18;72.62;95263.44;5025627;28;20061;-54
2020/12/11 09:55:46;;;;;;;16.38;12.60;;;;;;;2.08;72.71;95236.13;4984377;28;20057;-53
2020/12/11 09:58:14;;;;;;;18.98;13.52;;;;;;;2.20;73.41;95243.19;5023275;28;20057;-55
2020/12/11 10:00:46;;;;;;;18.63;12.77;;;;;;;2.22;72.75;95248.97;5048067;28;20062;-55
2020/12/11 10:03:17;;;;;;;13.73;11.60;;;;;;;2.28;72.99;95246.28;5041870;28;20572;-55
2020/12/11 10:05:45;;;;;;;12.15;10.00;;;;;;;2.44;72.47;95244.09;5011368;28;20054;-56
2020/12/11 10:08:12;;;;;;;17.08;11.95;;;;;;;2.57;71.39;95237.91;5019479;28;20421;-57
2020/12/11 10:10:39;;;;;;;15.45;10.73;;;;;;;2.63;70.94;95244.03;5018325;28;20057;-55
2020/12/11 10:13:07;;;;;;;14.90;11.60;;;;;;;2.64;70.77;95236.03;5052412;28;20061;-55
2020/12/11 10:15:34;;;;;;;19.25;12.57;;;;;;;2.61;71.23;95236.47;5019049;28;20049;-56
2020/12/11 10:18:05;;;;;;;16.85;12.98;;;;;;;2.56;70.60;95229.31;5019486;28;20041;-56
2020/12/11 10:20:35;;;;;;;14.10;12.35;;;;;;;2.54;71.14;95223.53;5019852;28;20045;-56
2020/12/11 10:23:02;;;;;;;14.15;11.57;;;;;;;2.56;72.07;95220.69;5020159;28;20041;-55
2020/12/11 10:25:29;;;;;;;15.73;12.15;;;;;;;2.66;71.05;95220.94;5019724;28;20827;-55
2020/12/11 10:27:56;;;;;;;14.40;11.90;;;;;;;2.65;71.42;95221.97;5011613;28;20064;-55
2020/12/11 10:30:24;;;;;;;19.75;12.55;;;;;;;2.54;70.01;95212.31;5011457;28;20751;-55
2020/12/11 10:32:51;;;;;;;14.55;11.48;;;;;;;2.50;70.96;95213.78;5011207;28;20057;-56
2020/12/11 10:35:18;;;;;;;14.60;12.88;;;;;;;2.52;70.93;95209.94;5015452;28;20057;-55
2020/12/11 10:37:48;;;;;;;15.90;12.48;;;;;;;2.51;71.19;95197.16;5005563;28;20057;-55
2020/12/11 10:40:23;;;;;;;16.30;13.07;;;;;;;2.51;71.55;95191.94;5039493;28;20065;-55
2020/12/11 10:42:50;;;;;;;21.45;14.60;;;;;;;2.50;72.20;95182.53;5011738;28;20069;-55
2020/12/11 10:45:17;;;;;;;22.63;15.95;;;;;;;2.53;71.41;95187.28;4998223;28;20061;-55
2020/12/11 10:47:45;;;;;;;17.83;14.15;;;;;;;2.59;71.16;95174.19;4997580;28;20049;-55
2020/12/11 10:50:12;;;;;;;18.45;14.48;;;;;;;2.59;71.07;95176.00;5046058;28;20045;-55
2020/12/11 10:52:40;;;;;;;19.73;16.17;;;;;;;2.62;70.83;95172.97;4982377;28;20049;-55
2020/12/11 10:55:07;;;;;;;23.75;18.08;;;;;;;2.66;71.05;95166.25;5008655;28;20525;-55
2020/12/11 10:57:38;;;;;;;16.52;13.40;;;;;;;2.80;69.98;95160.84;5012578;28;20053;-57
2020/12/11 11:00:05;;;;;;;15.32;11.88;;;;;;;2.85;70.15;95159.16;5049808;28;20061;-55
2020/12/11 11:02:33;;;;;;;19.88;14.60;;;;;;;2.88;70.34;95157.94;5042100;28;20049;-55
2020/12/11 11:05:00;;;;;;;16.05;12.65;;;;;;;2.95;69.59;95158.59;5013300;28;20553;-55
2020/12/11 11:07:29;;;;;;;20.58;14.90;;;;;;;2.95;69.92;95155.22;5048534;28;20053;-58
2020/12/11 11:12:34;;;;;;;18.70;15.90;;;;;;;3.02;69.83;95148.06;5008939;28;20057;-55
2020/12/11 11:23:11;;;;;;;23.65;17.60;;;;;;;2.84;70.75;95151.59;5016327;28;20061;-55
2020/12/11 11:28:24;;;;;;;22.83;16.85;;;;;;;2.95;70.53;95153.41;5009141;28;20073;-54
2020/12/11 11:30:52;;;;;;;25.02;17.90;;;;;;;3.08;69.49;95161.00;5013432;28;20289;-54
2020/12/11 11:33:19;;;;;;;24.70;18.33;;;;;;;3.02;70.11;95151.47;5045450;28;20951;-55
2020/12/11 11:35:49;;;;;;;25.92;17.45;;;;;;;3.07;70.17;95156.81;5042374;28;20064;-55
2020/12/11 11:38:18;;;;;;;26.52;19.02;;;;;;;3.19;69.84;95150.78;5002404;28;20374;-55
2020/12/11 11:40:47;;;;;;;22.05;16.02;;;;;;;3.20;69.56;95141.94;5016758;28;20058;-55
2020/12/11 11:43:19;;;;;;;23.73;18.67;;;;;;;3.18;69.33;95142.19;5054477;28;20084;-54
2020/12/11 11:45:47;;;;;;;21.17;16.27;;;;;;;3.03;69.30;95153.06;5028191;28;20179;-61
2020/12/11 11:48:16;;;;;;;23.08;16.80;;;;;;;2.91;69.93;95136.63;5024141;28;20053;-54
2020/12/11 11:53:24;;;;;;;26.98;18.52;;;;;;;2.91;70.56;95144.44;5034097;28;20742;-55
2020/12/11 11:55:51;;;;;;;22.67;17.95;;;;;;;2.93;70.41;95150.22;5009620;28;20045;-55
2020/12/11 11:58:18;;;;;;;23.50;17.58;;;;;;;2.82;69.97;95138.78;5040739;28;20064;-55
2020/12/11 12:00:45;;;;;;;32.70;22.63;;;;;;;2.82;71.13;95143.19;5007033;28;20425;-53
2020/12/11 12:03:13;;;;;;;29.75;19.40;;;;;;;2.80;70.61;95146.03;4998654;28;20049;-53
2020/12/11 12:05:41;;;;;;;32.50;20.00;;;;;;;2.70;71.02;95145.81;5017338;28;20045;-53
2020/12/11 12:08:08;;;;;;;27.27;19.23;;;;;;;2.64;71.04;95139.69;5012570;28;20053;-52
2020/12/11 12:10:36;;;;;;;28.98;18.30;;;;;;;2.65;71.48;95137.84;5049053;28;20049;-57